createdAt,value
2023-05-08T00:00:59.720Z,17.63
2023-05-08T00:03:28.151Z,20.40
2023-05-08T00:05:56.878Z,20.73
2023-05-08T00:08:24.566Z,24.00
2023-05-08T00:10:54.066Z,23.83
2023-05-08T00:13:22.232Z,22.43
2023-05-08T00:15:50.256Z,24.00
2023-05-08T00:18:18.133Z,20.60
2023-05-08T00:20:46.516Z,21.30
2023-05-08T00:23:14.865Z,23.07
2023-05-08T00:25:42.906Z,24.10
2023-05-08T00:28:12.373Z,25.40
2023-05-08T00:30:40.353Z,24.43
2023-05-08T00:33:08.500Z,23.57
2023-05-08T00:35:36.440Z,19.67
2023-05-08T00:38:04.810Z,22.67
2023-05-08T00:40:32.728Z,20.27
2023-05-08T00:43:01.068Z,22.27
2023-05-08T00:45:34.449Z,19.03
2023-05-08T00:48:02.405Z,21.17
2023-05-08T00:50:30.345Z,22.67
2023-05-08T00:52:58.263Z,20.93
2023-05-08T00:55:25.936Z,20.23
2023-05-08T00:57:53.648Z,17.53
2023-05-08T01:00:21.518Z,19.33
2023-05-08T01:02:50.605Z,22.53
2023-05-08T01:05:19.241Z,17.40
2023-05-08T01:07:47.232Z,19.27
2023-05-08T01:10:15.261Z,16.67
2023-05-08T01:12:58.265Z,18.10
2023-05-08T01:15:31.092Z,16.33
2023-05-08T01:18:05.702Z,17.33
2023-05-08T01:20:38.836Z,16.43
2023-05-08T01:23:45.673Z,17.70
2023-05-08T01:26:44.927Z,15.77
2023-05-08T01:29:34.475Z,15.23
2023-05-08T01:32:12.912Z,14.83
2023-05-08T01:34:45.964Z,14.10
2023-05-08T01:37:16.132Z,14.97
2023-05-08T01:39:45.734Z,14.03
2023-05-08T01:42:19.026Z,16.53
2023-05-08T01:44:48.782Z,13.80
2023-05-08T01:47:18.598Z,13.33
2023-05-08T01:49:47.278Z,12.50
2023-05-08T01:52:18.309Z,14.70
2023-05-08T01:54:48.090Z,14.33
2023-05-08T01:57:16.225Z,19.80
2023-05-08T01:59:44.177Z,13.47
2023-05-08T02:02:12.562Z,11.53
2023-05-08T02:04:42.892Z,11.80
2023-05-08T02:07:11.392Z,11.97
2023-05-08T02:09:39.738Z,14.00
2023-05-08T02:12:08.285Z,12.33
2023-05-08T02:14:36.449Z,11.07
2023-05-08T02:17:04.648Z,10.07
2023-05-08T02:19:32.949Z,12.63
2023-05-08T02:22:01.966Z,12.63
2023-05-08T02:24:30.081Z,11.20
2023-05-08T02:26:57.809Z,11.07
2023-05-08T02:29:25.852Z,11.07
2023-05-08T02:31:54.136Z,9.20
2023-05-08T02:34:22.227Z,9.50
2023-05-08T02:36:50.051Z,11.87
2023-05-08T02:39:19.429Z,10.40
2023-05-08T02:41:47.234Z,10.00
2023-05-08T02:44:14.940Z,10.20
2023-05-08T02:46:46.088Z,10.57
2023-05-08T02:49:15.209Z,8.90
2023-05-08T02:51:48.333Z,8.93
2023-05-08T02:54:19.155Z,13.90
2023-05-08T02:56:57.342Z,10.53
2023-05-08T02:59:28.294Z,9.03
2023-05-08T03:02:01.283Z,8.97
2023-05-08T03:04:32.217Z,8.97
2023-05-08T03:06:59.919Z,8.87
2023-05-08T03:09:33.293Z,8.97
2023-05-08T03:12:03.713Z,8.77
2023-05-08T03:14:31.469Z,8.63
2023-05-08T03:16:59.141Z,10.13
2023-05-08T03:19:29.208Z,8.00
2023-05-08T03:21:57.033Z,7.43
2023-05-08T03:24:24.879Z,7.70
2023-05-08T03:26:53.900Z,7.67
2023-05-08T03:29:21.939Z,14.50
2023-05-08T03:31:49.680Z,8.43
2023-05-08T03:34:17.373Z,8.07
2023-05-08T03:36:45.065Z,8.47
2023-05-08T03:39:13.061Z,8.63
2023-05-08T03:41:40.774Z,8.40
2023-05-08T03:44:10.334Z,8.30
2023-05-08T03:46:38.230Z,7.23
2023-05-08T03:49:06.507Z,10.13
2023-05-08T03:51:34.401Z,7.33
2023-05-08T03:54:02.284Z,7.30
2023-05-08T03:56:30.059Z,7.87
2023-05-08T03:59:01.944Z,7.17
2023-05-08T04:01:36.381Z,7.70
2023-05-08T04:04:08.284Z,9.67
2023-05-08T04:06:48.693Z,7.97
2023-05-08T04:09:19.791Z,7.07
2023-05-08T04:11:52.852Z,6.73
2023-05-08T04:14:21.525Z,6.97
2023-05-08T04:16:53.260Z,7.50
2023-05-08T04:19:24.428Z,7.83
2023-05-08T04:21:55.855Z,7.17
2023-05-08T04:24:23.893Z,7.20
2023-05-08T04:26:51.949Z,7.63
2023-05-08T04:29:19.632Z,6.80
2023-05-08T04:31:47.735Z,7.10
2023-05-08T04:34:17.068Z,7.10
2023-05-08T04:36:45.393Z,6.70
2023-05-08T04:39:13.392Z,6.63
2023-05-08T04:41:41.670Z,7.17
2023-05-08T04:44:09.538Z,7.10
2023-05-08T04:46:37.495Z,6.50
2023-05-08T04:49:05.596Z,6.40
2023-05-08T04:51:35.526Z,7.10
2023-05-08T04:54:03.302Z,6.27
2023-05-08T04:56:31.100Z,6.70
2023-05-08T04:58:59.006Z,6.83
2023-05-08T05:01:27.334Z,7.90
2023-05-08T05:03:55.167Z,6.30
2023-05-08T05:06:22.852Z,6.23
2023-05-08T05:08:51.859Z,6.73
2023-05-08T05:11:19.944Z,5.73
2023-05-08T05:13:47.821Z,6.00
2023-05-08T05:16:15.985Z,6.27
2023-05-08T05:18:43.708Z,6.40
2023-05-08T05:21:11.940Z,7.97
2023-05-08T05:23:39.617Z,6.30
2023-05-08T05:26:08.838Z,6.60
2023-05-08T05:28:36.521Z,5.97
2023-05-08T05:31:04.456Z,7.10
2023-05-08T05:33:32.206Z,6.53
2023-05-08T05:36:00.574Z,6.43
2023-05-08T05:38:28.321Z,6.73
2023-05-08T05:40:56.185Z,6.00
2023-05-08T05:43:25.242Z,6.83
2023-05-08T05:45:52.925Z,5.93
2023-05-08T05:48:20.786Z,5.73
2023-05-08T05:50:48.707Z,5.60
2023-05-08T05:53:17.032Z,5.50
2023-05-08T05:55:45.002Z,5.40
2023-05-08T05:58:12.908Z,6.80
2023-05-08T06:00:42.226Z,6.23
2023-05-08T06:03:10.840Z,6.17
2023-05-08T06:05:39.495Z,5.90
2023-05-08T06:08:07.277Z,5.70
2023-05-08T06:10:35.067Z,5.33
2023-05-08T06:13:03.544Z,5.43
2023-05-08T06:15:31.400Z,5.60
2023-05-08T06:18:00.916Z,5.73
2023-05-08T06:20:28.998Z,5.97
2023-05-08T06:22:57.025Z,5.80
2023-05-08T06:25:25.803Z,5.20
2023-05-08T06:27:53.729Z,5.20
2023-05-08T06:30:22.178Z,6.10
2023-05-08T06:32:50.499Z,5.90
2023-05-08T06:35:19.964Z,5.60
2023-05-08T06:37:48.172Z,7.03
2023-05-08T06:40:15.890Z,5.33
2023-05-08T06:42:43.975Z,6.00
2023-05-08T06:45:12.287Z,5.73
2023-05-08T06:47:40.548Z,5.57
2023-05-08T06:50:09.285Z,5.50
2023-05-08T06:52:38.620Z,5.80
2023-05-08T06:55:07.411Z,5.77
2023-05-08T06:57:35.836Z,5.67
2023-05-08T07:00:04.312Z,5.07
2023-05-08T07:02:32.523Z,5.50
2023-05-08T07:05:00.388Z,5.60
2023-05-08T07:07:28.220Z,5.00
2023-05-08T07:09:57.229Z,5.20
2023-05-08T07:12:25.105Z,5.50
2023-05-08T07:14:54.729Z,5.43
2023-05-08T07:17:23.891Z,5.87
2023-05-08T07:19:54.141Z,4.63
2023-05-08T07:22:22.034Z,7.40
2023-05-08T07:24:50.035Z,6.00
2023-05-08T07:27:20.214Z,4.97
2023-05-08T07:29:48.158Z,5.20
2023-05-08T07:32:16.393Z,5.60
2023-05-08T07:34:44.360Z,4.73
2023-05-08T07:37:13.308Z,5.43
2023-05-08T07:39:41.213Z,4.93
2023-05-08T07:42:09.681Z,5.33
2023-05-08T07:44:50.928Z,5.40
2023-05-08T07:47:22.594Z,5.83
2023-05-08T07:49:51.169Z,5.20
2023-05-08T07:52:19.244Z,6.20
2023-05-08T07:54:47.690Z,4.77
2023-05-08T07:57:16.980Z,5.47
2023-05-08T07:59:46.837Z,5.17
2023-05-08T08:02:15.070Z,5.10
2023-05-08T08:04:43.375Z,5.27
2023-05-08T08:07:11.678Z,5.50
2023-05-08T08:09:39.691Z,5.87
2023-05-08T08:12:07.949Z,4.70
2023-05-08T08:14:36.647Z,5.70
2023-05-08T08:17:06.275Z,5.03
2023-05-08T08:19:34.419Z,4.97
2023-05-08T08:22:02.633Z,5.37
2023-05-08T08:24:31.043Z,4.90
2023-05-08T08:26:59.006Z,5.17
2023-05-08T08:29:27.471Z,4.60
2023-05-08T08:31:55.686Z,5.40
2023-05-08T08:34:25.227Z,4.90
2023-05-08T08:36:53.454Z,4.83
2023-05-08T08:39:23.117Z,4.87
2023-05-08T08:41:51.799Z,5.20
2023-05-08T08:44:19.875Z,4.63
2023-05-08T08:46:51.544Z,4.40
2023-05-08T08:49:19.934Z,4.63
2023-05-08T08:51:52.885Z,4.60
2023-05-08T08:54:22.538Z,4.57
2023-05-08T08:56:52.101Z,4.60
2023-05-08T08:59:20.324Z,4.00
2023-05-08T09:01:49.600Z,5.30
2023-05-08T09:04:18.286Z,4.37
2023-05-08T09:06:46.886Z,5.00
2023-05-08T09:09:16.523Z,4.47
2023-05-08T09:11:44.942Z,4.30
2023-05-08T09:14:12.906Z,6.47
2023-05-08T09:16:41.586Z,4.10
2023-05-08T09:19:09.664Z,4.60
2023-05-08T09:21:37.666Z,4.40
2023-05-08T09:24:06.505Z,4.00
2023-05-08T09:26:37.303Z,3.77
2023-05-08T09:29:15.900Z,4.00
2023-05-08T09:31:44.700Z,4.00
2023-05-08T09:34:13.174Z,4.10
2023-05-08T09:36:42.606Z,4.00
2023-05-08T09:39:12.654Z,3.70
2023-05-08T09:41:43.273Z,3.90
2023-05-08T09:44:11.559Z,3.93
2023-05-08T09:46:39.519Z,11.07
2023-05-08T09:49:07.464Z,3.80
2023-05-08T09:51:35.374Z,3.50
2023-05-08T09:54:06.314Z,3.77
2023-05-08T09:56:35.489Z,3.50
2023-05-08T09:59:06.284Z,4.33
2023-05-08T10:01:34.685Z,3.67
2023-05-08T10:04:02.654Z,3.50
2023-05-08T10:06:31.334Z,3.53
2023-05-08T10:09:12.317Z,3.83
2023-05-08T10:11:40.739Z,3.33
2023-05-08T10:14:10.050Z,3.50
2023-05-08T10:16:41.730Z,3.20
2023-05-08T10:19:13.658Z,3.33
2023-05-08T10:21:44.118Z,3.40
2023-05-08T10:24:16.148Z,3.40
2023-05-08T10:26:57.115Z,3.53
2023-05-08T10:29:34.799Z,3.00
2023-05-08T10:32:02.520Z,3.13
2023-05-08T10:34:30.390Z,3.70
2023-05-08T10:36:58.225Z,2.90
2023-05-08T10:39:26.451Z,3.50
2023-05-08T10:41:54.863Z,2.70
2023-05-08T10:44:22.987Z,3.10
2023-05-08T10:46:54.408Z,2.93
2023-05-08T10:49:26.921Z,3.20
2023-05-08T10:52:02.930Z,3.27
2023-05-08T10:54:36.026Z,2.90
2023-05-08T10:57:11.210Z,3.50
2023-05-08T10:59:39.344Z,3.00
2023-05-08T11:02:09.231Z,3.03
2023-05-08T11:04:38.207Z,3.00
2023-05-08T11:07:06.143Z,2.80
2023-05-08T11:09:47.584Z,2.93
2023-05-08T11:12:22.320Z,2.73
2023-05-08T11:14:56.690Z,2.77
2023-05-08T11:17:26.483Z,2.80
2023-05-08T11:19:58.817Z,2.67
2023-05-08T11:22:31.195Z,4.70
2023-05-08T11:25:00.951Z,2.17
2023-05-08T11:27:33.815Z,1.87
2023-05-08T11:30:21.577Z,1.80
2023-05-08T11:33:14.223Z,2.03
2023-05-08T11:35:43.341Z,1.60
2023-05-08T11:38:31.485Z,1.67
2023-05-08T11:41:00.899Z,1.87
2023-05-08T11:43:37.167Z,1.40
2023-05-08T11:46:05.907Z,1.30
2023-05-08T11:48:35.883Z,1.30
2023-05-08T11:51:04.298Z,1.38
2023-05-08T11:53:32.846Z,1.30
2023-05-08T11:56:01.029Z,2.15
2023-05-08T11:58:29.289Z,1.40
2023-05-08T12:00:57.687Z,1.50
2023-05-08T12:03:26.500Z,1.20
2023-05-08T12:05:58.006Z,1.35
2023-05-08T12:08:26.054Z,1.60
2023-05-08T12:10:55.028Z,1.52
2023-05-08T12:13:23.846Z,1.50
2023-05-08T12:15:53.271Z,3.58
2023-05-08T12:18:21.858Z,1.40
2023-05-08T12:20:52.665Z,1.33
2023-05-08T12:23:22.039Z,1.50
2023-05-08T12:25:55.171Z,1.40
2023-05-08T12:28:23.946Z,1.50
2023-05-08T12:30:51.896Z,1.60
2023-05-08T12:33:19.968Z,1.67
2023-05-08T12:35:47.826Z,1.50
2023-05-08T12:38:15.792Z,1.80
2023-05-08T12:40:46.075Z,1.95
2023-05-08T12:43:14.098Z,1.45
2023-05-08T12:45:42.947Z,1.80
2023-05-08T12:48:12.517Z,1.98
2023-05-08T12:50:41.116Z,1.88
2023-05-08T12:53:10.318Z,1.73
2023-05-08T12:55:39.550Z,1.90
2023-05-08T12:58:11.970Z,2.00
2023-05-08T13:00:43.500Z,1.77
2023-05-08T13:03:12.677Z,2.13
2023-05-08T13:05:43.276Z,2.10
2023-05-08T13:08:12.175Z,2.10
2023-05-08T13:10:50.418Z,2.30
2023-05-08T13:13:21.004Z,2.30
2023-05-08T13:15:48.925Z,2.47
2023-05-08T13:18:17.464Z,2.23
2023-05-08T13:20:45.285Z,2.67
2023-05-08T13:23:13.110Z,2.93
2023-05-08T13:25:41.167Z,2.90
2023-05-08T13:28:09.861Z,3.00
2023-05-08T13:30:39.028Z,2.77
2023-05-08T13:33:06.913Z,2.63
2023-05-08T13:35:34.904Z,3.20
2023-05-08T13:38:03.059Z,2.63
2023-05-08T13:40:31.379Z,2.40
2023-05-08T13:42:59.302Z,3.30
2023-05-08T13:45:27.484Z,3.47
2023-05-08T13:47:56.938Z,2.77
2023-05-08T13:50:25.251Z,3.07
2023-05-08T13:52:55.116Z,3.00
2023-05-08T13:55:23.534Z,3.43
2023-05-08T13:57:51.991Z,3.40
2023-05-08T14:00:20.565Z,2.90
2023-05-08T14:02:50.830Z,5.33
2023-05-08T14:05:21.670Z,5.00
2023-05-08T14:07:49.766Z,3.27
2023-05-08T14:10:17.944Z,6.30
2023-05-08T14:12:46.594Z,3.57
2023-05-08T14:15:14.542Z,3.53
2023-05-08T14:17:42.902Z,3.40
2023-05-08T14:20:12.172Z,3.70
2023-05-08T14:22:41.665Z,4.03
2023-05-08T14:25:10.774Z,3.47
2023-05-08T14:27:38.960Z,3.73
2023-05-08T14:30:08.485Z,3.50
2023-05-08T14:32:36.922Z,4.00
2023-05-08T14:35:04.986Z,3.53
2023-05-08T14:37:33.110Z,3.90
2023-05-08T14:40:02.413Z,3.93
2023-05-08T14:42:30.292Z,4.10
2023-05-08T14:44:58.107Z,4.20
2023-05-08T14:47:26.673Z,3.90
2023-05-08T14:49:55.118Z,4.27
2023-05-08T14:52:23.034Z,3.70
2023-05-08T14:54:53.567Z,4.03
2023-05-08T14:57:23.059Z,4.00
2023-05-08T15:02:21.822Z,4.27
2023-05-08T15:04:50.137Z,4.60
2023-05-08T15:07:17.900Z,4.10
2023-05-08T15:09:45.579Z,4.30
2023-05-08T15:12:13.267Z,4.37
2023-05-08T15:14:42.405Z,4.77
2023-05-08T15:17:10.389Z,4.50
2023-05-08T15:19:38.369Z,5.93
2023-05-08T15:22:06.572Z,5.20
2023-05-08T15:24:34.895Z,4.23
2023-05-08T15:27:02.791Z,4.77
2023-05-08T15:29:30.703Z,5.00
2023-05-08T15:32:00.412Z,5.07
2023-05-08T15:34:32.401Z,5.23
2023-05-08T15:37:00.853Z,5.00
2023-05-08T15:39:28.995Z,4.90
2023-05-08T15:41:57.026Z,5.30
2023-05-08T15:44:28.784Z,4.47
2023-05-08T15:47:03.593Z,4.80
2023-05-08T15:49:31.257Z,4.80
2023-05-08T15:51:59.385Z,4.87
2023-05-08T15:54:27.148Z,4.60
2023-05-08T15:56:54.834Z,5.20
2023-05-08T15:59:22.534Z,5.10
2023-05-08T16:01:51.524Z,4.43
2023-05-08T16:04:21.299Z,5.10
2023-05-08T16:06:48.998Z,5.40
2023-05-08T16:09:17.118Z,4.87
2023-05-08T16:11:44.915Z,3.93
2023-05-08T16:14:12.634Z,5.23
2023-05-08T16:16:41.772Z,4.73
2023-05-08T16:19:09.789Z,5.13
2023-05-08T16:21:39.601Z,5.13
2023-05-08T16:24:07.991Z,4.83
2023-05-08T16:26:36.044Z,5.03
2023-05-08T16:29:03.994Z,4.83
2023-05-08T16:31:32.441Z,5.00
2023-05-08T16:34:00.436Z,4.70
2023-05-08T16:36:28.357Z,5.03
2023-05-08T16:38:57.765Z,5.67
2023-05-08T16:41:27.331Z,5.10
2023-05-08T16:43:55.204Z,5.00
2023-05-08T16:46:29.889Z,5.30
2023-05-08T16:48:58.511Z,5.07
2023-05-08T16:51:26.465Z,5.00
2023-05-08T16:53:56.023Z,5.33
2023-05-08T16:56:26.868Z,4.97
2023-05-08T16:58:54.878Z,5.03
2023-05-08T17:01:22.793Z,5.20
2023-05-08T17:03:50.655Z,13.10
2023-05-08T17:06:19.926Z,5.17
2023-05-08T17:08:47.913Z,4.77
2023-05-08T17:11:15.901Z,5.37
2023-05-08T17:13:46.254Z,5.37
2023-05-08T17:16:14.726Z,5.50
2023-05-08T17:18:42.624Z,5.47
2023-05-08T17:21:10.741Z,4.90
2023-05-08T17:23:38.733Z,5.03
2023-05-08T17:26:06.760Z,4.90
2023-05-08T17:28:34.826Z,5.60
2023-05-08T17:31:04.732Z,5.60
2023-05-08T17:33:33.568Z,4.70
2023-05-08T17:36:02.197Z,5.47
2023-05-08T17:38:30.224Z,5.20
2023-05-08T17:40:58.151Z,4.73
2023-05-08T17:43:28.934Z,5.30
2023-05-08T17:45:56.936Z,5.33
2023-05-08T17:48:27.276Z,5.67
2023-05-08T17:50:55.238Z,4.93
2023-05-08T17:53:23.216Z,5.43
2023-05-08T17:55:51.631Z,5.27
2023-05-08T17:58:19.499Z,5.13
2023-05-08T18:00:47.725Z,5.07
2023-05-08T18:03:15.813Z,5.63
2023-05-08T18:05:45.609Z,5.53
2023-05-08T18:08:13.692Z,5.70
2023-05-08T18:10:41.601Z,5.23
2023-05-08T18:13:09.661Z,5.20
2023-05-08T18:15:40.450Z,6.03
2023-05-08T18:18:08.488Z,5.73
2023-05-08T18:20:36.989Z,5.50
2023-05-08T18:23:06.548Z,6.27
2023-05-08T18:25:34.899Z,5.70
2023-05-08T18:28:02.769Z,5.50
2023-05-08T18:30:31.496Z,7.27
2023-05-08T18:32:59.307Z,7.13
2023-05-08T18:35:27.464Z,6.37
2023-05-08T18:37:56.863Z,39.17
2023-05-08T18:40:26.438Z,14.23
2023-05-08T18:42:54.649Z,8.37
2023-05-08T18:45:22.697Z,6.00
2023-05-08T18:47:52.560Z,26.00
2023-05-08T18:50:21.081Z,12.90
2023-05-08T18:52:49.311Z,15.57
2023-05-08T18:55:17.792Z,15.83
2023-05-08T18:57:47.266Z,8.73
2023-05-08T19:00:16.427Z,11.93
2023-05-08T19:02:44.795Z,7.90
2023-05-08T19:05:12.921Z,7.50
2023-05-08T19:07:43.720Z,6.27
2023-05-08T19:10:12.090Z,7.77
2023-05-08T19:12:40.186Z,11.33
2023-05-08T19:15:14.379Z,6.67
2023-05-08T19:17:42.609Z,11.10
2023-05-08T19:20:18.732Z,8.47
2023-05-08T19:22:52.780Z,8.50
2023-05-08T19:25:21.144Z,7.40
2023-05-08T19:27:49.289Z,6.43
2023-05-08T19:30:20.212Z,8.30
2023-05-08T19:32:48.523Z,10.07
2023-05-08T19:35:19.494Z,7.70
2023-05-08T19:37:47.624Z,9.03
2023-05-08T19:40:24.804Z,8.30
2023-05-08T19:42:58.590Z,7.87
2023-05-08T19:45:29.983Z,7.10
2023-05-08T19:47:58.037Z,14.80
2023-05-08T19:50:40.634Z,15.13
2023-05-08T19:53:08.765Z,19.30
2023-05-08T19:55:37.007Z,21.50
2023-05-08T19:58:04.817Z,12.27
2023-05-08T20:00:33.934Z,12.60
2023-05-08T20:03:01.819Z,12.00
2023-05-08T20:05:29.707Z,10.10
2023-05-08T20:07:57.487Z,11.20
2023-05-08T20:10:25.638Z,10.97
2023-05-08T20:12:53.683Z,11.17
2023-05-08T20:15:22.012Z,10.43
2023-05-08T20:17:51.438Z,12.10
2023-05-08T20:20:19.559Z,15.70
2023-05-08T20:22:53.919Z,8.83
2023-05-08T20:25:22.016Z,11.03
2023-05-08T20:27:52.396Z,9.40
2023-05-08T20:30:22.837Z,10.30
2023-05-08T20:32:57.765Z,14.50
2023-05-08T20:39:12.317Z,9.80
2023-05-08T20:42:19.045Z,9.80
2023-05-08T20:45:25.982Z,9.00
2023-05-08T20:48:34.298Z,9.50
2023-05-08T20:51:02.354Z,9.20
2023-05-08T20:53:30.751Z,8.33
2023-05-08T20:56:15.714Z,10.00
2023-05-08T20:59:19.094Z,8.33
2023-05-08T21:01:48.603Z,8.87
2023-05-08T21:04:18.404Z,8.27
2023-05-08T21:10:32.008Z,11.17
2023-05-08T21:13:40.158Z,10.30
2023-05-08T21:16:26.177Z,8.30
2023-05-08T21:18:58.357Z,7.87
2023-05-08T21:21:31.933Z,8.00
2023-05-08T21:24:00.049Z,7.70
2023-05-08T21:26:39.838Z,8.93
2023-05-08T21:29:11.337Z,7.63
2023-05-08T21:31:39.567Z,8.47
2023-05-08T21:34:10.007Z,8.50
2023-05-08T21:36:39.822Z,7.27
2023-05-08T21:39:08.056Z,10.03
2023-05-08T21:41:36.518Z,6.83
2023-05-08T21:44:04.650Z,7.70
2023-05-08T21:46:32.678Z,6.60
2023-05-08T21:49:02.624Z,13.50
2023-05-08T21:51:31.454Z,8.07
2023-05-08T21:54:03.873Z,7.83
2023-05-08T21:56:31.947Z,11.57
2023-05-08T21:59:00.137Z,7.13
2023-05-08T22:01:28.313Z,6.60
2023-05-08T22:03:56.620Z,7.23
2023-05-08T22:06:24.888Z,7.30
2023-05-08T22:08:52.904Z,9.27
2023-05-08T22:11:22.499Z,7.27
2023-05-08T22:13:50.734Z,6.77
2023-05-08T22:16:18.895Z,7.87
2023-05-08T22:18:47.049Z,6.87
2023-05-08T22:21:15.048Z,6.50
2023-05-08T22:23:43.449Z,9.80
2023-05-08T22:26:16.133Z,7.67
2023-05-08T22:28:51.151Z,6.67
2023-05-08T22:31:19.088Z,6.90
2023-05-08T22:34:00.005Z,10.30
2023-05-08T22:36:28.099Z,6.27
2023-05-08T22:38:58.416Z,7.20
2023-05-08T22:41:35.498Z,10.93
2023-05-08T22:44:04.762Z,6.37
2023-05-08T22:46:33.613Z,6.63
2023-05-08T22:49:04.357Z,6.23
2023-05-08T22:51:33.713Z,7.00
2023-05-08T22:54:15.463Z,6.77
2023-05-08T23:04:02.578Z,5.90
2023-05-08T23:06:34.193Z,6.33
2023-05-08T23:09:23.338Z,10.00
2023-05-08T23:11:56.875Z,5.57
2023-05-08T23:14:25.062Z,8.00
2023-05-08T23:17:03.001Z,8.13
2023-05-08T23:19:50.944Z,6.00
2023-05-08T23:22:28.867Z,6.23
2023-05-08T23:24:59.893Z,6.47
2023-05-08T23:27:31.573Z,8.00
2023-05-08T23:29:59.557Z,6.77
2023-05-08T23:32:27.492Z,6.30
2023-05-08T23:34:57.495Z,9.90
2023-05-08T23:37:25.487Z,6.10
2023-05-08T23:39:53.779Z,6.73
2023-05-08T23:42:27.223Z,6.73
2023-05-08T23:44:55.396Z,6.33
2023-05-08T23:47:24.452Z,6.07
2023-05-08T23:49:52.505Z,6.20
2023-05-08T23:52:22.358Z,6.00
2023-05-08T23:54:50.476Z,6.60
2023-05-08T23:57:18.890Z,6.13
2023-05-08T23:59:46.931Z,6.00
